Time;durP1;ratioP1;P1;durP2;ratioP2;P2;SDS_P1;SDS_P2;PMS_P1;PMS_P2;Temp;Humidity;BMP_temperature;BMP_pressure;BME280_temperature;BME280_humidity;BME280_pressure;Samples;Min_cycle;Max_cycle;Signal;HPM_P1;HPM_P2
2023/09/01 00:00:49;;;;;;;;;;;14.60;99.90;;;;;;5120812;28;19979;-92
2023/09/01 00:03:16;;;;;;;;;;;14.60;99.90;;;;;;5109301;28;20261;-92
2023/09/01 00:05:43;;;;;;;;;;;14.60;99.90;;;;;;5109389;28;19920;-92
2023/09/01 00:08:10;;;;;;;;;;;14.50;99.90;;;;;;5109587;28;19987;-92
2023/09/01 00:10:39;;;;;;;;;;;14.60;99.90;;;;;;5108795;28;19987;-91
2023/09/01 00:13:06;;;;;;;;;;;14.50;99.90;;;;;;5105419;28;19920;-92
2023/09/01 00:15:34;;;;;;;;;;;14.50;99.90;;;;;;5109766;28;20274;-92
2023/09/01 00:18:00;;;;;;;;;;;14.50;99.90;;;;;;5110916;28;20231;-91
2023/09/01 00:20:27;;;;;;;;;;;14.50;99.90;;;;;;5110672;28;20122;-91
2023/09/01 00:22:54;;;;;;;;;;;14.50;99.90;;;;;;5109199;28;20134;-91
2023/09/01 00:25:21;;;;;;;;;;;14.50;99.90;;;;;;5109401;28;19940;-91
2023/09/01 00:27:47;;;;;;;;;;;14.50;99.90;;;;;;5094795;28;19948;-92
2023/09/01 00:30:14;;;;;;;;;;;14.50;99.90;;;;;;5108664;28;20210;-92
2023/09/01 00:32:42;;;;;;;;;;;14.40;99.90;;;;;;5129084;28;19951;-92
2023/09/01 00:35:09;;;;;;;;;;;14.40;99.90;;;;;;5129568;28;19920;-92
2023/09/01 00:37:36;;;;;;;;;;;14.40;99.90;;;;;;5129665;28;19920;-92
2023/09/01 00:40:03;;;;;;;;;;;14.40;99.90;;;;;;5112012;28;19980;-92
2023/09/01 00:42:29;;;;;;;;;;;14.40;99.90;;;;;;5097788;28;19951;-92
2023/09/01 00:44:56;;;;;;;;;;;14.40;99.90;;;;;;5092315;28;19951;-92
2023/09/01 00:47:23;;;;;;;;;;;14.40;99.90;;;;;;5090315;28;19984;-92
2023/09/01 00:49:51;;;;;;;;;;;14.40;99.90;;;;;;5091625;28;20018;-92
2023/09/01 00:52:18;;;;;;;;;;;14.40;99.90;;;;;;5090503;28;19992;-92
2023/09/01 00:54:45;;;;;;;;;;;14.40;99.90;;;;;;5090086;28;20234;-92
2023/09/01 00:57:11;;;;;;;;;;;14.40;99.90;;;;;;5093518;28;20255;-91
2023/09/01 00:59:47;;;;;;;;;;;14.40;99.90;;;;;;5104467;28;20011;-92
2023/09/01 01:02:14;;;;;;;;;;;14.40;99.90;;;;;;5111278;28;19920;-92
2023/09/01 01:04:41;;;;;;;;;;;14.40;99.90;;;;;;5110723;28;19920;-93
2023/09/01 01:07:13;;;;;;;;;;;14.40;99.90;;;;;;5111102;28;19982;-92
2023/09/01 01:09:45;;;;;;;;;;;14.30;99.90;;;;;;5111118;28;19951;-92
2023/09/01 01:12:21;;;;;;;;;;;14.30;99.90;;;;;;5104795;28;19926;-92
2023/09/01 01:14:48;;;;;;;;;;;14.30;99.90;;;;;;5102835;28;20170;-91
2023/09/01 01:17:18;;;;;;;;;;;14.30;99.90;;;;;;5110032;28;20126;-92
2023/09/01 01:19:48;;;;;;;;;;;14.30;99.90;;;;;;5109151;28;19927;-92
2023/09/01 01:22:20;;;;;;;;;;;14.30;99.90;;;;;;5109851;28;19920;-91
2023/09/01 01:24:48;;;;;;;;;;;14.20;99.90;;;;;;5109559;28;19960;-92
2023/09/01 01:27:18;;;;;;;;;;;14.20;99.90;;;;;;5099142;28;19928;-92
2023/09/01 01:29:45;;;;;;;;;;;14.20;99.90;;;;;;5106572;28;19920;-93
2023/09/01 01:32:13;;;;;;;;;;;14.20;99.90;;;;;;5109397;28;19973;-92
2023/09/01 01:34:42;;;;;;;;;;;14.20;99.90;;;;;;5109391;28;19924;-92
2023/09/01 01:37:11;;;;;;;;;;;14.10;99.90;;;;;;5109591;28;19946;-92
2023/09/01 01:39:39;;;;;;;;;;;14.10;99.90;;;;;;5097226;28;19920;-92
2023/09/01 01:42:10;;;;;;;;;;;14.10;99.90;;;;;;5100204;28;19948;-93
2023/09/01 01:47:12;;;;;;;;;;;14.10;99.90;;;;;;5084165;28;19921;-75
2023/09/01 01:49:39;;;;;;;;;;;14.10;99.90;;;;;;5085993;28;19921;-75
2023/09/01 01:52:06;;;;;;;;;;;14.10;99.90;;;;;;5085644;28;19994;-75
2023/09/01 01:54:33;;;;;;;;;;;14.10;99.90;;;;;;5085585;28;19995;-75
2023/09/01 01:57:00;;;;;;;;;;;14.10;99.90;;;;;;5077614;28;19992;-75
2023/09/01 01:59:28;;;;;;;;;;;14.10;99.90;;;;;;5069883;28;20226;-75
2023/09/01 02:01:54;;;;;;;;;;;14.10;99.90;;;;;;5065361;28;19976;-75
2023/09/01 02:04:21;;;;;;;;;;;14.00;99.90;;;;;;5065602;28;19927;-74
2023/09/01 02:06:47;;;;;;;;;;;14.10;99.90;;;;;;5065167;28;19958;-76
2023/09/01 02:09:16;;;;;;;;;;;14.10;99.90;;;;;;5064781;28;19920;-75
2023/09/01 02:11:43;;;;;;;;;;;14.10;99.90;;;;;;5068053;28;19944;-75
2023/09/01 02:14:10;;;;;;;;;;;14.10;99.90;;;;;;5081860;28;19926;-75
2023/09/01 02:16:39;;;;;;;;;;;14.10;99.90;;;;;;5065423;28;19952;-75
2023/09/01 02:19:08;;;;;;;;;;;14.10;99.90;;;;;;5092097;28;19924;-75
2023/09/01 02:21:34;;;;;;;;;;;14.10;99.90;;;;;;5105555;28;19919;-75
2023/09/01 02:24:02;;;;;;;;;;;14.10;99.90;;;;;;5105376;28;19988;-75
2023/09/01 02:26:29;;;;;;;;;;;14.10;99.90;;;;;;5095307;28;19925;-75
2023/09/01 02:28:55;;;;;;;;;;;14.10;99.90;;;;;;5087614;28;19963;-75
2023/09/01 02:31:22;;;;;;;;;;;14.10;99.90;;;;;;5086022;28;19920;-75
2023/09/01 02:33:50;;;;;;;;;;;14.10;99.90;;;;;;5084830;28;19983;-74
2023/09/01 02:36:27;;;;;;;;;;;14.10;99.90;;;;;;5085044;28;19983;-75
2023/09/01 02:38:54;;;;;;;;;;;14.00;99.90;;;;;;5077509;28;20175;-75
2023/09/01 02:41:21;;;;;;;;;;;14.00;99.90;;;;;;5067360;28;20127;-75
2023/09/01 02:43:48;;;;;;;;;;;14.00;99.90;;;;;;5078955;28;20165;-74
2023/09/01 02:46:14;;;;;;;;;;;14.00;99.90;;;;;;5082850;28;19955;-75
2023/09/01 02:48:41;;;;;;;;;;;14.00;99.90;;;;;;5085151;28;19984;-74
2023/09/01 02:51:09;;;;;;;;;;;13.90;99.90;;;;;;5084382;28;19927;-75
2023/09/01 02:53:36;;;;;;;;;;;13.90;99.90;;;;;;5084597;28;19928;-75
2023/09/01 02:56:03;;;;;;;;;;;14.00;99.90;;;;;;5084625;28;19955;-75
2023/09/01 02:58:30;;;;;;;;;;;14.00;99.90;;;;;;5066212;28;19920;-75
2023/09/01 03:00:57;;;;;;;;;;;13.90;99.90;;;;;;5070554;28;20022;-75
2023/09/01 03:03:24;;;;;;;;;;;13.90;99.90;;;;;;5064231;28;19920;-75
2023/09/01 03:05:51;;;;;;;;;;;13.90;99.90;;;;;;5064448;28;20160;-75
2023/09/01 03:08:20;;;;;;;;;;;14.00;99.90;;;;;;5064443;28;19988;-75
2023/09/01 03:10:50;;;;;;;;;;;14.00;99.90;;;;;;5063715;28;19963;-75
2023/09/01 03:13:17;;;;;;;;;;;14.00;99.90;;;;;;5071531;28;19980;-75
2023/09/01 03:15:44;;;;;;;;;;;14.00;99.90;;;;;;5070174;28;20234;-74
2023/09/01 03:18:11;;;;;;;;;;;14.00;99.90;;;;;;5064305;28;19955;-75
2023/09/01 03:20:37;;;;;;;;;;;14.00;99.90;;;;;;5063922;28;20232;-73
2023/09/01 03:23:04;;;;;;;;;;;14.00;99.90;;;;;;5063939;28;19983;-75
2023/09/01 03:25:32;;;;;;;;;;;13.90;99.90;;;;;;5064148;28;19920;-75
2023/09/01 03:27:59;;;;;;;;;;;14.00;99.90;;;;;;5065644;28;20253;-75
2023/09/01 03:30:25;;;;;;;;;;;13.90;99.90;;;;;;5079955;28;19975;-74
2023/09/01 03:32:52;;;;;;;;;;;14.00;99.90;;;;;;5083469;28;20200;-75
2023/09/01 03:35:18;;;;;;;;;;;14.00;99.90;;;;;;5083751;28;19943;-74
2023/09/01 03:37:45;;;;;;;;;;;14.00;99.90;;;;;;5083667;28;19921;-75
2023/09/01 03:40:12;;;;;;;;;;;14.00;99.90;;;;;;5065708;28;20120;-75
2023/09/01 03:42:40;;;;;;;;;;;13.90;99.90;;;;;;5065501;28;19920;-75
2023/09/01 03:45:07;;;;;;;;;;;13.90;99.90;;;;;;5072459;28;19991;-74
2023/09/01 03:47:36;;;;;;;;;;;13.90;99.90;;;;;;5063186;28;20143;-75
2023/09/01 03:50:03;;;;;;;;;;;13.90;99.90;;;;;;5063834;28;19952;-75
2023/09/01 03:52:29;;;;;;;;;;;13.90;99.90;;;;;;5063249;28;20200;-75
2023/09/01 03:54:56;;;;;;;;;;;13.90;99.90;;;;;;5063733;28;19921;-74
2023/09/01 03:57:23;;;;;;;;;;;13.90;99.90;;;;;;5055296;28;19921;-75
2023/09/01 03:59:51;;;;;;;;;;;13.90;99.90;;;;;;5065032;28;19921;-75
2023/09/01 04:02:17;;;;;;;;;;;13.90;99.90;;;;;;5063516;28;19921;-75
2023/09/01 04:04:44;;;;;;;;;;;13.90;99.90;;;;;;5063395;28;19921;-74
2023/09/01 04:07:10;;;;;;;;;;;13.90;99.90;;;;;;5063655;28;19921;-74
2023/09/01 04:09:37;;;;;;;;;;;13.90;99.90;;;;;;5063266;28;20212;-72
2023/09/01 04:12:04;;;;;;;;;;;13.90;99.90;;;;;;5060916;28;19921;-74
2023/09/01 04:14:30;;;;;;;;;;;13.90;99.90;;;;;;5059837;28;19979;-75
2023/09/01 04:16:58;;;;;;;;;;;13.90;99.90;;;;;;5043286;28;19987;-75
2023/09/01 04:19:25;;;;;;;;;;;13.90;99.90;;;;;;5043593;28;19988;-74
2023/09/01 04:21:52;;;;;;;;;;;13.90;99.90;;;;;;5043079;28;19992;-74
2023/09/01 04:24:18;;;;;;;;;;;13.90;99.90;;;;;;5043342;28;20223;-74
2023/09/01 04:26:45;;;;;;;;;;;13.90;99.90;;;;;;5051873;28;19920;-75
2023/09/01 04:29:12;;;;;;;;;;;13.90;99.90;;;;;;5053615;28;19988;-74
2023/09/01 04:31:38;;;;;;;;;;;14.00;99.90;;;;;;5043705;28;19980;-74
2023/09/01 04:34:06;;;;;;;;;;;14.00;99.90;;;;;;5043070;28;19928;-75
2023/09/01 04:36:33;;;;;;;;;;;14.00;99.90;;;;;;5043214;28;19928;-75
2023/09/01 04:39:02;;;;;;;;;;;13.90;99.90;;;;;;5043314;28;19956;-74
2023/09/01 04:41:29;;;;;;;;;;;14.00;99.90;;;;;;5045285;28;19928;-75
2023/09/01 04:43:55;;;;;;;;;;;14.00;99.90;;;;;;5042897;28;19921;-75
2023/09/01 04:46:22;;;;;;;;;;;14.00;99.90;;;;;;5061911;28;19920;-74
2023/09/01 04:48:48;;;;;;;;;;;14.10;99.90;;;;;;5062782;28;19921;-73
2023/09/01 04:51:16;;;;;;;;;;;14.00;99.90;;;;;;5066881;28;19920;-73
2023/09/01 04:53:43;;;;;;;;;;;14.00;99.90;;;;;;5066271;28;19927;-73
2023/09/01 04:56:10;;;;;;;;;;;14.00;99.90;;;;;;5063536;28;19921;-74
2023/09/01 04:58:36;;;;;;;;;;;14.10;99.90;;;;;;5066569;28;19975;-73
2023/09/01 05:01:03;;;;;;;;;;;14.10;99.90;;;;;;5066606;28;19920;-73
2023/09/01 05:03:29;;;;;;;;;;;14.10;99.90;;;;;;5066425;28;19987;-73
2023/09/01 05:05:56;;;;;;;;;;;14.10;99.90;;;;;;5066468;28;19921;-73
2023/09/01 05:08:24;;;;;;;;;;;14.20;99.90;;;;;;5066578;28;19927;-73
2023/09/01 05:10:51;;;;;;;;;;;14.20;99.90;;;;;;5065084;28;19921;-73
2023/09/01 05:13:18;;;;;;;;;;;14.20;99.90;;;;;;5047702;28;20255;-73
2023/09/01 05:15:47;;;;;;;;;;;14.20;99.90;;;;;;5059525;28;19979;-73
2023/09/01 05:18:13;;;;;;;;;;;14.20;99.90;;;;;;5066444;28;19984;-76
2023/09/01 05:20:40;;;;;;;;;;;14.20;99.90;;;;;;5066146;28;20276;-73
2023/09/01 05:23:07;;;;;;;;;;;14.20;99.90;;;;;;5066069;28;19920;-73
2023/09/01 05:25:35;;;;;;;;;;;14.20;99.90;;;;;;5066369;28;20111;-74
2023/09/01 05:28:01;;;;;;;;;;;14.20;99.90;;;;;;5051762;28;19984;-75
2023/09/01 05:30:28;;;;;;;;;;;14.30;99.90;;;;;;5068498;28;20096;-73
2023/09/01 05:32:54;;;;;;;;;;;14.30;99.90;;;;;;5085862;28;19991;-73
2023/09/01 05:35:21;;;;;;;;;;;14.30;99.90;;;;;;5085815;28;19927;-73
2023/09/01 05:37:47;;;;;;;;;;;14.40;99.90;;;;;;5086205;28;19983;-76
2023/09/01 05:40:14;;;;;;;;;;;14.40;99.90;;;;;;5086012;28;19987;-74
2023/09/01 05:42:42;;;;;;;;;;;14.50;99.90;;;;;;5072224;28;19980;-72
2023/09/01 05:45:09;;;;;;;;;;;14.50;99.90;;;;;;5057560;28;19927;-72
2023/09/01 05:47:37;;;;;;;;;;;14.50;99.90;;;;;;5065043;28;19996;-72
2023/09/01 05:50:05;;;;;;;;;;;14.60;99.90;;;;;;5065867;28;19928;-72
2023/09/01 05:52:31;;;;;;;;;;;14.60;99.90;;;;;;5065418;28;20207;-72
2023/09/01 05:54:58;;;;;;;;;;;14.60;99.90;;;;;;5065720;28;19927;-72
2023/09/01 05:57:24;;;;;;;;;;;14.70;99.90;;;;;;5057232;28;19988;-72
2023/09/01 05:59:52;;;;;;;;;;;14.70;99.90;;;;;;5057014;28;19935;-71
2023/09/01 06:02:19;;;;;;;;;;;14.80;99.90;;;;;;5085219;28;19955;-71
2023/09/01 06:04:45;;;;;;;;;;;14.80;99.90;;;;;;5085178;28;19920;-71
2023/09/01 06:07:12;;;;;;;;;;;14.80;99.90;;;;;;5070793;28;19928;-71
2023/09/01 06:09:39;;;;;;;;;;;14.90;99.90;;;;;;5065348;28;19921;-71
2023/09/01 06:12:06;;;;;;;;;;;14.90;99.90;;;;;;5064640;28;19943;-72
2023/09/01 06:14:32;;;;;;;;;;;14.90;99.90;;;;;;5061183;28;19964;-74
2023/09/01 06:17:00;;;;;;;;;;;14.90;99.90;;;;;;5045253;28;19943;-71
2023/09/01 06:19:27;;;;;;;;;;;15.00;99.90;;;;;;5044816;28;19984;-71
2023/09/01 06:21:53;;;;;;;;;;;15.10;99.90;;;;;;5045067;28;19921;-71
2023/09/01 06:24:20;;;;;;;;;;;15.10;99.90;;;;;;5044918;28;19989;-71
2023/09/01 06:26:47;;;;;;;;;;;15.20;99.90;;;;;;5049697;28;20120;-70
2023/09/01 06:29:13;;;;;;;;;;;15.20;99.90;;;;;;5046179;28;19987;-71
2023/09/01 06:31:40;;;;;;;;;;;15.30;99.90;;;;;;5084042;28;19927;-71
2023/09/01 06:34:08;;;;;;;;;;;15.30;99.90;;;;;;5084553;28;19990;-71
2023/09/01 06:36:34;;;;;;;;;;;15.30;99.90;;;;;;5084802;28;19920;-71
2023/09/01 06:39:02;;;;;;;;;;;15.40;99.90;;;;;;5084774;28;19920;-71
2023/09/01 06:41:28;;;;;;;;;;;15.40;99.90;;;;;;5079679;28;19928;-71
2023/09/01 06:43:55;;;;;;;;;;;15.40;99.90;;;;;;5044369;28;20495;-71
2023/09/01 06:46:21;;;;;;;;;;;15.50;99.90;;;;;;5063185;28;19952;-71
2023/09/01 06:48:48;;;;;;;;;;;15.60;99.90;;;;;;5064339;28;19921;-71
2023/09/01 06:51:16;;;;;;;;;;;15.60;99.90;;;;;;5055436;28;20139;-71
2023/09/01 06:53:43;;;;;;;;;;;15.70;99.90;;;;;;5044380;28;19967;-72
2023/09/01 06:56:10;;;;;;;;;;;15.80;99.90;;;;;;5047816;28;19984;-71
2023/09/01 06:58:36;;;;;;;;;;;15.80;99.90;;;;;;5045298;28;19928;-70
2023/09/01 07:01:11;;;;;;;;;;;15.90;99.90;;;;;;5061753;28;20168;-71
2023/09/01 07:03:37;;;;;;;;;;;16.00;99.90;;;;;;5064113;28;20200;-71
2023/09/01 07:06:13;;;;;;;;;;;16.00;99.90;;;;;;5062098;28;19952;-72
2023/09/01 07:08:41;;;;;;;;;;;16.00;99.90;;;;;;5064228;28;19997;-69
2023/09/01 07:11:09;;;;;;;;;;;16.10;99.90;;;;;;5063051;28;19996;-71
2023/09/01 07:13:35;;;;;;;;;;;16.20;99.90;;;;;;5051152;28;20268;-71
2023/09/01 07:16:04;;;;;;;;;;;16.20;99.90;;;;;;5059589;28;19963;-71
2023/09/01 07:18:31;;;;;;;;;;;16.20;99.90;;;;;;5063881;28;19962;-73
2023/09/01 07:20:58;;;;;;;;;;;16.20;99.90;;;;;;5052575;28;20227;-73
2023/09/01 07:23:25;;;;;;;;;;;16.20;99.90;;;;;;5043898;28;19925;-73
2023/09/01 07:25:53;;;;;;;;;;;16.20;99.90;;;;;;5043892;28;19921;-70
2023/09/01 07:28:20;;;;;;;;;;;16.20;99.90;;;;;;5045552;28;19952;-77
2023/09/01 07:30:47;;;;;;;;;;;16.20;99.90;;;;;;5058034;28;19985;-72
2023/09/01 07:33:13;;;;;;;;;;;16.10;99.90;;;;;;5063375;28;19927;-72
2023/09/01 07:35:45;;;;;;;;;;;16.20;99.90;;;;;;5072845;28;19927;-72
2023/09/01 07:38:11;;;;;;;;;;;16.20;99.90;;;;;;5083911;28;19988;-72
2023/09/01 07:40:38;;;;;;;;;;;16.30;99.90;;;;;;5083669;28;19988;-71
2023/09/01 07:43:06;;;;;;;;;;;16.20;99.90;;;;;;5046486;28;19921;-72
2023/09/01 07:45:32;;;;;;;;;;;16.30;99.90;;;;;;5055499;28;19927;-71
2023/09/01 07:47:59;;;;;;;;;;;16.40;99.90;;;;;;5063393;28;19984;-70
2023/09/01 07:50:30;;;;;;;;;;;16.40;99.90;;;;;;5063537;28;19921;-71
2023/09/01 07:52:56;;;;;;;;;;;16.50;99.90;;;;;;5063103;28;19920;-71
2023/09/01 07:55:23;;;;;;;;;;;16.60;99.90;;;;;;5063434;28;20198;-73
2023/09/01 07:57:49;;;;;;;;;;;16.60;99.90;;;;;;5048705;28;19984;-71
2023/09/01 08:00:18;;;;;;;;;;;16.60;99.90;;;;;;5053346;28;19927;-71
2023/09/01 08:02:44;;;;;;;;;;;16.70;99.90;;;;;;5063039;28;19920;-72
2023/09/01 08:05:11;;;;;;;;;;;16.70;99.90;;;;;;5067939;28;20243;-72
2023/09/01 08:07:47;;;;;;;;;;;16.70;99.90;;;;;;5074611;28;19952;-71
2023/09/01 08:10:14;;;;;;;;;;;16.80;99.90;;;;;;5063342;28;19984;-72
2023/09/01 08:12:40;;;;;;;;;;;16.80;99.90;;;;;;5060342;28;20157;-72
2023/09/01 08:15:08;;;;;;;;;;;16.80;99.90;;;;;;5053960;28;19927;-72
2023/09/01 08:17:36;;;;;;;;;;;16.80;99.90;;;;;;5043456;28;19921;-72
2023/09/01 08:20:03;;;;;;;;;;;16.90;99.90;;;;;;5043262;28;19988;-72
2023/09/01 08:22:31;;;;;;;;;;;17.00;99.90;;;;;;5043038;28;19921;-71
2023/09/01 08:24:57;;;;;;;;;;;17.10;99.90;;;;;;5047223;28;19953;-71
2023/09/01 08:27:26;;;;;;;;;;;17.10;99.90;;;;;;5057985;28;19964;-72
2023/09/01 08:29:53;;;;;;;;;;;17.20;99.90;;;;;;5058730;28;19925;-72
2023/09/01 08:32:19;;;;;;;;;;;17.20;99.90;;;;;;5066854;28;19929;-71
2023/09/01 08:34:47;;;;;;;;;;;17.20;99.90;;;;;;5067035;28;19963;-72
2023/09/01 08:37:15;;;;;;;;;;;17.20;99.90;;;;;;5070870;28;19920;-72
2023/09/01 08:39:42;;;;;;;;;;;17.20;99.90;;;;;;5086743;28;20215;-72
2023/09/01 08:42:09;;;;;;;;;;;17.20;99.90;;;;;;5065734;28;19924;-70
2023/09/01 08:44:36;;;;;;;;;;;17.20;99.90;;;;;;5054660;28;20226;-72
2023/09/01 08:47:04;;;;;;;;;;;17.20;99.90;;;;;;5046552;28;19959;-72
2023/09/01 08:49:30;;;;;;;;;;;17.20;99.90;;;;;;5046957;28;19936;-71
2023/09/01 08:51:58;;;;;;;;;;;17.20;99.90;;;;;;5046576;28;19960;-72
2023/09/01 08:54:26;;;;;;;;;;;17.10;99.90;;;;;;5046419;28;19940;-71
2023/09/01 08:56:53;;;;;;;;;;;17.20;99.90;;;;;;5051842;28;19921;-72
2023/09/01 08:59:20;;;;;;;;;;;17.20;99.90;;;;;;5047183;28;20166;-72
2023/09/01 09:01:47;;;;;;;;;;;17.20;99.90;;;;;;5052580;28;20255;-71
2023/09/01 09:04:14;;;;;;;;;;;17.30;99.90;;;;;;5065208;28;20216;-72
2023/09/01 09:06:41;;;;;;;;;;;17.30;99.90;;;;;;5066975;28;19987;-72
2023/09/01 09:09:11;;;;;;;;;;;17.30;99.90;;;;;;5067720;28;19992;-71
2023/09/01 09:11:38;;;;;;;;;;;17.30;99.90;;;;;;5066519;28;19928;-71
2023/09/01 09:14:06;;;;;;;;;;;17.30;99.90;;;;;;5066226;28;19921;-72
2023/09/01 09:16:34;;;;;;;;;;;17.30;99.90;;;;;;5045722;28;20012;-73
2023/09/01 09:19:07;;;;;;;;;;;17.30;99.90;;;;;;5051604;28;19992;-71
2023/09/01 09:21:34;;;;;;;;;;;17.30;99.90;;;;;;5086434;28;19967;-70
2023/09/01 09:24:01;;;;;;;;;;;17.30;99.90;;;;;;5086090;28;19983;-72
2023/09/01 09:26:29;;;;;;;;;;;17.20;99.90;;;;;;5081488;28;19983;-72
2023/09/01 09:29:03;;;;;;;;;;;17.20;99.90;;;;;;5045540;28;19928;-73
2023/09/01 09:31:30;;;;;;;;;;;17.30;99.90;;;;;;5046080;28;19927;-72
2023/09/01 09:33:57;;;;;;;;;;;17.30;99.90;;;;;;5046005;28;20098;-72
2023/09/01 09:36:32;;;;;;;;;;;17.30;99.90;;;;;;5045224;28;20204;-72
2023/09/01 09:38:58;;;;;;;;;;;17.30;99.90;;;;;;5045841;28;19929;-72
2023/09/01 09:41:24;;;;;;;;;;;17.40;99.90;;;;;;5048373;28;19992;-71
2023/09/01 09:43:52;;;;;;;;;;;17.40;99.90;;;;;;5050983;28;20108;-72
2023/09/01 09:46:19;;;;;;;;;;;17.40;99.90;;;;;;5064020;28;19984;-71
2023/09/01 09:48:46;;;;;;;;;;;17.50;99.90;;;;;;5065878;28;19927;-72
2023/09/01 09:51:16;;;;;;;;;;;17.50;99.90;;;;;;5065770;28;19967;-72
2023/09/01 09:53:45;;;;;;;;;;;17.50;99.90;;;;;;5065510;28;20123;-72
2023/09/01 09:56:17;;;;;;;;;;;17.50;99.90;;;;;;5064679;28;19943;-72
2023/09/01 09:58:45;;;;;;;;;;;17.50;99.90;;;;;;5059124;28;19952;-72
2023/09/01 10:01:14;;;;;;;;;;;17.50;99.90;;;;;;5049944;28;19925;-73
2023/09/01 10:03:41;;;;;;;;;;;17.60;99.90;;;;;;5085477;28;20030;-73
2023/09/01 10:06:08;;;;;;;;;;;17.60;99.90;;;;;;5085516;28;19927;-72
2023/09/01 10:08:36;;;;;;;;;;;17.60;99.90;;;;;;5085503;28;19920;-72
2023/09/01 10:11:04;;;;;;;;;;;17.70;99.90;;;;;;5085344;28;19999;-72
2023/09/01 10:13:31;;;;;;;;;;;17.80;99.90;;;;;;5054923;28;19921;-73
2023/09/01 10:16:00;;;;;;;;;;;17.80;99.90;;;;;;5059938;28;20234;-73
2023/09/01 10:18:29;;;;;;;;;;;18.00;99.90;;;;;;5065394;28;19925;-72
2023/09/01 10:20:55;;;;;;;;;;;18.10;99.90;;;;;;5064898;28;19988;-72
2023/09/01 10:23:22;;;;;;;;;;;18.10;99.90;;;;;;5064838;28;19952;-73
2023/09/01 10:26:06;;;;;;;;;;;18.20;99.90;;;;;;5064745;28;19921;-73
2023/09/01 10:28:52;;;;;;;;;;;18.40;99.90;;;;;;5053992;28;19925;-72
2023/09/01 10:31:20;;;;;;;;;;;18.40;99.90;;;;;;5049022;28;20089;-72
2023/09/01 10:33:48;;;;;;;;;;;18.50;99.90;;;;;;5084730;28;20138;-73
2023/09/01 10:36:14;;;;;;;;;;;18.50;99.90;;;;;;5084730;28;20233;-73
2023/09/01 10:38:41;;;;;;;;;;;18.50;99.90;;;;;;5084898;28;19991;-73
2023/09/01 10:41:08;;;;;;;;;;;18.50;99.90;;;;;;5084883;28;19921;-73
2023/09/01 10:43:53;;;;;;;;;;;18.50;99.90;;;;;;5062877;28;19927;-72
2023/09/01 10:46:27;;;;;;;;;;;18.50;99.90;;;;;;5063758;28;20216;-73
2023/09/01 10:48:56;;;;;;;;;;;18.60;99.90;;;;;;5064635;28;19921;-73
2023/09/01 10:51:25;;;;;;;;;;;18.60;99.90;;;;;;5064574;28;19956;-73
2023/09/01 10:53:52;;;;;;;;;;;18.70;99.90;;;;;;5064426;28;19988;-73
2023/09/01 10:56:20;;;;;;;;;;;18.90;99.90;;;;;;5061313;28;19963;-73
2023/09/01 10:58:47;;;;;;;;;;;19.00;99.90;;;;;;5044489;28;19925;-73
2023/09/01 11:01:27;;;;;;;;;;;19.10;99.90;;;;;;5061822;28;19928;-74
2023/09/01 11:03:56;;;;;;;;;;;19.20;99.90;;;;;;5044371;28;19963;-73
2023/09/01 11:06:23;;;;;;;;;;;19.20;99.90;;;;;;5044365;28;19960;-73
2023/09/01 11:08:57;;;;;;;;;;;19.30;99.90;;;;;;5044582;28;20145;-73
2023/09/01 11:11:24;;;;;;;;;;;19.30;99.90;;;;;;5047013;28;19948;-73
2023/09/01 11:13:53;;;;;;;;;;;19.30;99.90;;;;;;5044079;28;19992;-73
2023/09/01 11:16:20;;;;;;;;;;;19.40;99.90;;;;;;5062055;28;20151;-73
2023/09/01 11:19:00;;;;;;;;;;;19.40;99.90;;;;;;5064251;28;19921;-71
2023/09/01 11:21:27;;;;;;;;;;;19.40;99.90;;;;;;5064139;28;19925;-72
2023/09/01 11:23:57;;;;;;;;;;;19.50;99.90;;;;;;5063830;28;19943;-72
2023/09/01 11:26:23;;;;;;;;;;;19.60;99.90;;;;;;5061266;28;19992;-71
2023/09/01 11:28:50;;;;;;;;;;;19.70;99.90;;;;;;5043932;28;20012;-72
2023/09/01 11:31:16;;;;;;;;;;;19.70;99.90;;;;;;5061772;28;19921;-72
2023/09/01 11:33:51;;;;;;;;;;;19.70;99.90;;;;;;5083413;28;19983;-72
2023/09/01 11:36:19;;;;;;;;;;;19.70;99.90;;;;;;5083598;28;19926;-73
2023/09/01 11:38:48;;;;;;;;;;;19.80;99.90;;;;;;5082891;28;19927;-73
2023/09/01 11:41:16;;;;;;;;;;;19.80;99.90;;;;;;5078844;28;20116;-73
2023/09/01 11:43:43;;;;;;;;;;;19.70;99.90;;;;;;5043854;28;19984;-73
2023/09/01 11:46:10;;;;;;;;;;;19.60;99.90;;;;;;5060339;28;19921;-72
2023/09/01 11:48:37;;;;;;;;;;;19.60;99.90;;;;;;5063865;28;19944;-72
2023/09/01 11:51:04;;;;;;;;;;;19.70;99.90;;;;;;5052030;28;20167;-73
2023/09/01 11:53:33;;;;;;;;;;;19.80;99.90;;;;;;5043455;28;19921;-72
2023/09/01 11:56:01;;;;;;;;;;;20.00;99.90;;;;;;5056409;28;20258;-73
2023/09/01 11:58:42;;;;;;;;;;;20.20;99.90;;;;;;5048754;28;19975;-72
2023/09/01 12:01:09;;;;;;;;;;;20.30;99.90;;;;;;5060327;28;19921;-72
2023/09/01 12:03:37;;;;;;;;;;;20.50;99.90;;;;;;5081169;28;20284;-71
2023/09/01 12:06:14;;;;;;;;;;;20.50;99.90;;;;;;5071444;28;19925;-72
2023/09/01 12:08:42;;;;;;;;;;;20.50;99.90;;;;;;5052851;28;19927;-71
2023/09/01 12:11:08;;;;;;;;;;;20.70;99.90;;;;;;5059481;28;19988;-72
2023/09/01 12:13:35;;;;;;;;;;;20.80;99.90;;;;;;5054769;28;19921;-71
2023/09/01 12:16:04;;;;;;;;;;;20.90;99.90;;;;;;5058951;28;19921;-71
2023/09/01 12:18:40;;;;;;;;;;;20.90;99.90;;;;;;5058076;28;20186;-72
2023/09/01 12:21:07;;;;;;;;;;;20.80;99.90;;;;;;5044472;28;19953;-71
2023/09/01 12:23:34;;;;;;;;;;;20.80;99.90;;;;;;5045706;28;19988;-72
2023/09/01 12:26:02;;;;;;;;;;;20.80;99.90;;;;;;5052537;28;20299;-71
2023/09/01 12:28:30;;;;;;;;;;;20.70;99.90;;;;;;5050019;28;19921;-71
2023/09/01 12:30:57;;;;;;;;;;;20.60;99.90;;;;;;5043268;28;19928;-72
2023/09/01 12:33:24;;;;;;;;;;;20.50;99.90;;;;;;5057391;28;19952;-71
2023/09/01 12:35:51;;;;;;;;;;;20.40;99.90;;;;;;5043364;28;19921;-72
2023/09/01 12:38:18;;;;;;;;;;;20.30;99.90;;;;;;5047324;28;19992;-72
2023/09/01 12:40:45;;;;;;;;;;;20.20;99.90;;;;;;5059523;28;19987;-73
2023/09/01 12:43:13;;;;;;;;;;;20.20;99.90;;;;;;5062724;28;20160;-72
2023/09/01 12:45:40;;;;;;;;;;;20.10;99.90;;;;;;5052742;28;19927;-72
2023/09/01 12:48:07;;;;;;;;;;;19.90;99.90;;;;;;5063240;28;19927;-73
2023/09/01 12:50:34;;;;;;;;;;;19.90;99.90;;;;;;5063192;28;19992;-73
2023/09/01 12:53:00;;;;;;;;;;;19.80;99.90;;;;;;5062945;28;19988;-72
2023/09/01 12:55:28;;;;;;;;;;;19.80;99.90;;;;;;5056503;28;20093;-72
2023/09/01 12:57:55;;;;;;;;;;;19.70;99.90;;;;;;5045979;28;20542;-72
2023/09/01 13:00:23;;;;;;;;;;;19.70;99.90;;;;;;5053512;28;20271;-72
2023/09/01 13:02:51;;;;;;;;;;;19.70;99.90;;;;;;5047701;28;19981;-73
2023/09/01 13:05:18;;;;;;;;;;;19.70;99.90;;;;;;5060529;28;19974;-73
2023/09/01 13:07:46;;;;;;;;;;;19.70;99.90;;;;;;5063283;28;19943;-73
2023/09/01 13:10:12;;;;;;;;;;;19.90;99.90;;;;;;5062449;28;19920;-72
2023/09/01 13:12:39;;;;;;;;;;;20.10;99.90;;;;;;5054500;28;20106;-73
2023/09/01 13:15:08;;;;;;;;;;;20.30;99.90;;;;;;5054319;28;19921;-73
2023/09/01 13:17:36;;;;;;;;;;;20.40;99.90;;;;;;5062124;28;19921;-72
2023/09/01 13:20:03;;;;;;;;;;;20.30;99.90;;;;;;5066432;28;20167;-71
2023/09/01 13:22:29;;;;;;;;;;;20.30;99.90;;;;;;5066621;28;19943;-72
2023/09/01 13:24:56;;;;;;;;;;;20.30;99.90;;;;;;5066315;28;19991;-72
2023/09/01 13:27:23;;;;;;;;;;;20.30;99.90;;;;;;5059203;28;19921;-72
2023/09/01 13:29:50;;;;;;;;;;;20.20;99.90;;;;;;5060436;28;19921;-72
2023/09/01 13:32:16;;;;;;;;;;;20.20;99.90;;;;;;5046439;28;20164;-73
2023/09/01 13:34:44;;;;;;;;;;;20.20;99.90;;;;;;5045989;28;19921;-72
2023/09/01 13:37:11;;;;;;;;;;;20.20;99.90;;;;;;5056488;28;19937;-72
2023/09/01 13:39:37;;;;;;;;;;;20.20;99.90;;;;;;5053797;28;19929;-72
2023/09/01 13:42:04;;;;;;;;;;;20.30;99.90;;;;;;5059152;28;19984;-73
2023/09/01 13:44:31;;;;;;;;;;;20.40;99.90;;;;;;5049086;28;20204;-72
2023/09/01 13:46:57;;;;;;;;;;;20.40;99.90;;;;;;5065782;28;19980;-72
2023/09/01 13:49:25;;;;;;;;;;;20.60;99.90;;;;;;5066054;28;19920;-71
2023/09/01 13:51:53;;;;;;;;;;;20.90;99.90;;;;;;5066007;28;20240;-72
2023/09/01 13:54:20;;;;;;;;;;;21.00;99.90;;;;;;5064818;28;19989;-72
2023/09/01 13:56:46;;;;;;;;;;;21.30;99.90;;;;;;5059656;28;19960;-72
2023/09/01 13:59:13;;;;;;;;;;;21.50;99.90;;;;;;5062323;28;19920;-72
2023/09/01 14:01:40;;;;;;;;;;;21.90;99.90;;;;;;5045522;28;19928;-72
2023/09/01 14:04:07;;;;;;;;;;;22.20;99.90;;;;;;5045561;28;19921;-71
2023/09/01 14:06:35;;;;;;;;;;;22.60;99.90;;;;;;5045470;28;20223;-72
2023/09/01 14:09:04;;;;;;;;;;;22.80;99.90;;;;;;5045713;28;19932;-72
2023/09/01 14:11:30;;;;;;;;;;;22.70;99.90;;;;;;5048791;28;19921;-72
2023/09/01 14:13:57;;;;;;;;;;;22.60;99.90;;;;;;5045239;28;19921;-72
2023/09/01 14:16:24;;;;;;;;;;;22.40;99.90;;;;;;5063817;28;19980;-71
2023/09/01 14:18:50;;;;;;;;;;;22.20;99.90;;;;;;5056536;28;19928;-71
2023/09/01 14:21:17;;;;;;;;;;;22.00;99.90;;;;;;5052148;28;20226;-73